sensor_id;sensor_type;location;lat;lon;timestamp;P1;durP1;ratioP1;P2;durP2;ratioP2
56503;SDS011;48812;51.606;-0.114;2023-05-07T00:00:08;3.72;;;1.90;;
56503;SDS011;48812;51.606;-0.114;2023-05-07T00:02:41;2.20;;;1.75;;
56503;SDS011;48812;51.606;-0.114;2023-05-07T00:05:16;1.75;;;1.33;;
56503;SDS011;48812;51.606;-0.114;2023-05-07T00:07:49;2.53;;;1.70;;
56503;SDS011;48812;51.606;-0.114;2023-05-07T00:10:22;2.20;;;1.50;;
56503;SDS011;48812;51.606;-0.114;2023-05-07T00:12:55;2.35;;;1.70;;
56503;SDS011;48812;51.606;-0.114;2023-05-07T00:15:28;1.50;;;1.40;;
56503;SDS011;48812;51.606;-0.114;2023-05-07T00:18:00;2.00;;;1.63;;
56503;SDS011;48812;51.606;-0.114;2023-05-07T00:20:33;2.25;;;1.50;;
56503;SDS011;48812;51.606;-0.114;2023-05-07T00:23:07;1.67;;;1.50;;
56503;SDS011;48812;51.606;-0.114;2023-05-07T00:25:40;3.00;;;1.70;;
56503;SDS011;48812;51.606;-0.114;2023-05-07T00:28:13;2.50;;;1.70;;
56503;SDS011;48812;51.606;-0.114;2023-05-07T00:30:46;1.52;;;1.42;;
56503;SDS011;48812;51.606;-0.114;2023-05-07T00:33:18;1.93;;;1.70;;
56503;SDS011;48812;51.606;-0.114;2023-05-07T00:35:52;2.17;;;1.80;;
56503;SDS011;48812;51.606;-0.114;2023-05-07T00:38:28;2.58;;;1.85;;
56503;SDS011;48812;51.606;-0.114;2023-05-07T00:41:00;2.90;;;1.67;;
56503;SDS011;48812;51.606;-0.114;2023-05-07T00:43:34;1.83;;;1.48;;
56503;SDS011;48812;51.606;-0.114;2023-05-07T00:46:07;2.63;;;1.52;;
56503;SDS011;48812;51.606;-0.114;2023-05-07T00:48:41;1.80;;;1.30;;
56503;SDS011;48812;51.606;-0.114;2023-05-07T00:51:15;2.00;;;1.42;;
56503;SDS011;48812;51.606;-0.114;2023-05-07T00:53:49;1.95;;;1.40;;
56503;SDS011;48812;51.606;-0.114;2023-05-07T00:56:21;2.63;;;1.80;;
56503;SDS011;48812;51.606;-0.114;2023-05-07T00:58:55;1.83;;;1.60;;
56503;SDS011;48812;51.606;-0.114;2023-05-07T01:01:28;1.67;;;1.40;;
56503;SDS011;48812;51.606;-0.114;2023-05-07T01:04:00;1.77;;;1.40;;
56503;SDS011;48812;51.606;-0.114;2023-05-07T01:06:34;2.08;;;1.40;;
56503;SDS011;48812;51.606;-0.114;2023-05-07T01:09:07;1.92;;;1.48;;
56503;SDS011;48812;51.606;-0.114;2023-05-07T01:11:41;2.08;;;1.52;;
56503;SDS011;48812;51.606;-0.114;2023-05-07T01:14:14;1.65;;;1.42;;
56503;SDS011;48812;51.606;-0.114;2023-05-07T01:16:49;2.25;;;1.63;;
56503;SDS011;48812;51.606;-0.114;2023-05-07T01:19:28;1.80;;;1.40;;
56503;SDS011;48812;51.606;-0.114;2023-05-07T01:22:06;2.13;;;1.42;;
56503;SDS011;48812;51.606;-0.114;2023-05-07T01:24:51;2.42;;;1.48;;
56503;SDS011;48812;51.606;-0.114;2023-05-07T01:27:25;1.80;;;1.40;;
56503;SDS011;48812;51.606;-0.114;2023-05-07T01:29:58;2.33;;;1.60;;
56503;SDS011;48812;51.606;-0.114;2023-05-07T01:32:48;1.52;;;1.40;;
56503;SDS011;48812;51.606;-0.114;2023-05-07T01:35:28;1.60;;;1.40;;
56503;SDS011;48812;51.606;-0.114;2023-05-07T01:38:03;1.60;;;1.20;;
56503;SDS011;48812;51.606;-0.114;2023-05-07T01:40:38;2.10;;;1.10;;
56503;SDS011;48812;51.606;-0.114;2023-05-07T01:43:10;2.47;;;1.50;;
56503;SDS011;48812;51.606;-0.114;2023-05-07T01:45:44;1.95;;;1.33;;
56503;SDS011;48812;51.606;-0.114;2023-05-07T01:50:52;1.45;;;1.20;;
56503;SDS011;48812;51.606;-0.114;2023-05-07T01:53:26;2.45;;;1.50;;
56503;SDS011;48812;51.606;-0.114;2023-05-07T01:55:59;1.63;;;1.20;;
56503;SDS011;48812;51.606;-0.114;2023-05-07T01:58:37;1.67;;;1.35;;
56503;SDS011;48812;51.606;-0.114;2023-05-07T02:01:09;1.63;;;1.25;;
56503;SDS011;48812;51.606;-0.114;2023-05-07T02:03:42;1.88;;;1.20;;
56503;SDS011;48812;51.606;-0.114;2023-05-07T02:06:23;2.00;;;1.25;;
56503;SDS011;48812;51.606;-0.114;2023-05-07T02:09:00;1.73;;;1.42;;
56503;SDS011;48812;51.606;-0.114;2023-05-07T02:11:32;1.33;;;1.23;;
56503;SDS011;48812;51.606;-0.114;2023-05-07T02:14:05;1.30;;;1.20;;
56503;SDS011;48812;51.606;-0.114;2023-05-07T02:16:37;1.80;;;1.40;;
56503;SDS011;48812;51.606;-0.114;2023-05-07T02:19:10;1.45;;;1.25;;
56503;SDS011;48812;51.606;-0.114;2023-05-07T02:21:44;1.30;;;1.10;;
56503;SDS011;48812;51.606;-0.114;2023-05-07T02:24:16;1.63;;;1.33;;
56503;SDS011;48812;51.606;-0.114;2023-05-07T02:26:49;1.67;;;1.40;;
56503;SDS011;48812;51.606;-0.114;2023-05-07T02:29:21;1.25;;;1.10;;
56503;SDS011;48812;51.606;-0.114;2023-05-07T02:31:54;1.60;;;1.20;;
56503;SDS011;48812;51.606;-0.114;2023-05-07T02:36:59;1.27;;;1.15;;
56503;SDS011;48812;51.606;-0.114;2023-05-07T02:42:06;2.08;;;1.30;;
56503;SDS011;48812;51.606;-0.114;2023-05-07T02:44:39;2.08;;;1.30;;
56503;SDS011;48812;51.606;-0.114;2023-05-07T02:47:13;1.88;;;1.50;;
56503;SDS011;48812;51.606;-0.114;2023-05-07T02:49:48;2.03;;;1.33;;
56503;SDS011;48812;51.606;-0.114;2023-05-07T02:52:21;1.90;;;1.40;;
56503;SDS011;48812;51.606;-0.114;2023-05-07T02:54:54;1.55;;;1.30;;
56503;SDS011;48812;51.606;-0.114;2023-05-07T02:57:26;1.37;;;1.17;;
56503;SDS011;48812;51.606;-0.114;2023-05-07T02:59:59;1.85;;;1.25;;
56503;SDS011;48812;51.606;-0.114;2023-05-07T03:02:36;2.60;;;1.35;;
56503;SDS011;48812;51.606;-0.114;2023-05-07T03:05:08;1.80;;;1.25;;
56503;SDS011;48812;51.606;-0.114;2023-05-07T03:07:42;2.30;;;1.52;;
56503;SDS011;48812;51.606;-0.114;2023-05-07T03:10:18;1.30;;;1.20;;
56503;SDS011;48812;51.606;-0.114;2023-05-07T03:12:51;1.88;;;1.63;;
56503;SDS011;48812;51.606;-0.114;2023-05-07T03:15:24;1.90;;;1.35;;
56503;SDS011;48812;51.606;-0.114;2023-05-07T03:17:57;1.42;;;1.25;;
56503;SDS011;48812;51.606;-0.114;2023-05-07T03:20:30;1.40;;;1.20;;
56503;SDS011;48812;51.606;-0.114;2023-05-07T03:23:03;1.52;;;1.25;;
56503;SDS011;48812;51.606;-0.114;2023-05-07T03:25:36;1.83;;;1.40;;
56503;SDS011;48812;51.606;-0.114;2023-05-07T03:28:10;2.05;;;1.48;;
56503;SDS011;48812;51.606;-0.114;2023-05-07T03:30:48;2.83;;;1.60;;
56503;SDS011;48812;51.606;-0.114;2023-05-07T03:33:20;1.65;;;1.40;;
56503;SDS011;48812;51.606;-0.114;2023-05-07T03:35:54;1.95;;;1.60;;
56503;SDS011;48812;51.606;-0.114;2023-05-07T03:38:28;2.10;;;1.50;;
56503;SDS011;48812;51.606;-0.114;2023-05-07T03:41:02;1.42;;;1.33;;
56503;SDS011;48812;51.606;-0.114;2023-05-07T03:43:35;1.70;;;1.35;;
56503;SDS011;48812;51.606;-0.114;2023-05-07T03:46:12;1.67;;;1.27;;
56503;SDS011;48812;51.606;-0.114;2023-05-07T03:48:45;1.63;;;1.40;;
56503;SDS011;48812;51.606;-0.114;2023-05-07T03:51:19;1.40;;;1.25;;
56503;SDS011;48812;51.606;-0.114;2023-05-07T03:53:51;1.53;;;1.43;;
56503;SDS011;48812;51.606;-0.114;2023-05-07T03:56:29;1.58;;;1.38;;
56503;SDS011;48812;51.606;-0.114;2023-05-07T03:59:05;2.10;;;1.40;;
56503;SDS011;48812;51.606;-0.114;2023-05-07T04:01:37;2.00;;;1.65;;
56503;SDS011;48812;51.606;-0.114;2023-05-07T04:04:10;2.00;;;1.30;;
56503;SDS011;48812;51.606;-0.114;2023-05-07T04:06:42;2.17;;;1.40;;
56503;SDS011;48812;51.606;-0.114;2023-05-07T04:09:15;1.75;;;1.40;;
56503;SDS011;48812;51.606;-0.114;2023-05-07T04:11:50;1.85;;;1.42;;
56503;SDS011;48812;51.606;-0.114;2023-05-07T04:14:22;1.55;;;1.40;;
56503;SDS011;48812;51.606;-0.114;2023-05-07T04:16:54;2.03;;;1.58;;
56503;SDS011;48812;51.606;-0.114;2023-05-07T04:19:27;2.10;;;1.83;;
56503;SDS011;48812;51.606;-0.114;2023-05-07T04:22:00;1.67;;;1.40;;
56503;SDS011;48812;51.606;-0.114;2023-05-07T04:24:34;2.08;;;1.70;;
56503;SDS011;48812;51.606;-0.114;2023-05-07T04:27:07;1.90;;;1.60;;
56503;SDS011;48812;51.606;-0.114;2023-05-07T04:29:40;1.80;;;1.40;;
56503;SDS011;48812;51.606;-0.114;2023-05-07T04:32:16;2.08;;;1.73;;
56503;SDS011;48812;51.606;-0.114;2023-05-07T04:34:49;2.22;;;1.75;;
56503;SDS011;48812;51.606;-0.114;2023-05-07T04:37:22;1.77;;;1.60;;
56503;SDS011;48812;51.606;-0.114;2023-05-07T04:39:55;2.25;;;1.70;;
56503;SDS011;48812;51.606;-0.114;2023-05-07T04:42:29;1.85;;;1.52;;
56503;SDS011;48812;51.606;-0.114;2023-05-07T04:45:02;2.20;;;1.80;;
56503;SDS011;48812;51.606;-0.114;2023-05-07T04:47:38;2.28;;;1.73;;
56503;SDS011;48812;51.606;-0.114;2023-05-07T04:50:11;2.17;;;1.83;;
56503;SDS011;48812;51.606;-0.114;2023-05-07T04:52:45;1.90;;;1.63;;
56503;SDS011;48812;51.606;-0.114;2023-05-07T04:55:18;2.00;;;1.73;;
56503;SDS011;48812;51.606;-0.114;2023-05-07T04:57:51;1.98;;;1.80;;
56503;SDS011;48812;51.606;-0.114;2023-05-07T05:00:25;2.15;;;1.80;;
56503;SDS011;48812;51.606;-0.114;2023-05-07T05:02:59;1.98;;;1.77;;
56503;SDS011;48812;51.606;-0.114;2023-05-07T05:05:33;2.28;;;1.63;;
56503;SDS011;48812;51.606;-0.114;2023-05-07T05:08:07;2.40;;;1.83;;
56503;SDS011;48812;51.606;-0.114;2023-05-07T05:10:42;2.17;;;1.85;;
56503;SDS011;48812;51.606;-0.114;2023-05-07T05:13:16;2.28;;;1.98;;
56503;SDS011;48812;51.606;-0.114;2023-05-07T05:15:52;2.50;;;1.83;;
56503;SDS011;48812;51.606;-0.114;2023-05-07T05:18:24;2.97;;;2.05;;
56503;SDS011;48812;51.606;-0.114;2023-05-07T05:20:57;2.33;;;1.70;;
56503;SDS011;48812;51.606;-0.114;2023-05-07T05:23:30;2.17;;;1.80;;
56503;SDS011;48812;51.606;-0.114;2023-05-07T05:26:03;2.40;;;1.88;;
56503;SDS011;48812;51.606;-0.114;2023-05-07T05:28:37;1.95;;;1.67;;
56503;SDS011;48812;51.606;-0.114;2023-05-07T05:31:10;2.60;;;2.10;;
56503;SDS011;48812;51.606;-0.114;2023-05-07T05:33:42;2.33;;;1.90;;
56503;SDS011;48812;51.606;-0.114;2023-05-07T05:36:15;1.73;;;1.63;;
56503;SDS011;48812;51.606;-0.114;2023-05-07T05:38:50;2.22;;;1.83;;
56503;SDS011;48812;51.606;-0.114;2023-05-07T05:41:23;2.92;;;2.00;;
56503;SDS011;48812;51.606;-0.114;2023-05-07T05:43:55;2.27;;;1.90;;
56503;SDS011;48812;51.606;-0.114;2023-05-07T05:46:28;2.05;;;1.80;;
56503;SDS011;48812;51.606;-0.114;2023-05-07T05:49:01;2.30;;;2.10;;
56503;SDS011;48812;51.606;-0.114;2023-05-07T05:51:33;2.03;;;1.80;;
56503;SDS011;48812;51.606;-0.114;2023-05-07T05:54:06;2.55;;;1.95;;
56503;SDS011;48812;51.606;-0.114;2023-05-07T05:56:38;3.47;;;1.65;;
56503;SDS011;48812;51.606;-0.114;2023-05-07T05:59:12;2.53;;;2.10;;
56503;SDS011;48812;51.606;-0.114;2023-05-07T06:01:45;2.85;;;2.47;;
56503;SDS011;48812;51.606;-0.114;2023-05-07T06:04:20;1.85;;;1.73;;
56503;SDS011;48812;51.606;-0.114;2023-05-07T06:06:53;2.00;;;1.80;;
56503;SDS011;48812;51.606;-0.114;2023-05-07T06:09:25;2.03;;;1.80;;
56503;SDS011;48812;51.606;-0.114;2023-05-07T06:11:58;2.05;;;1.85;;
56503;SDS011;48812;51.606;-0.114;2023-05-07T06:14:34;2.35;;;1.90;;
56503;SDS011;48812;51.606;-0.114;2023-05-07T06:17:06;2.25;;;1.90;;
56503;SDS011;48812;51.606;-0.114;2023-05-07T06:19:39;2.33;;;2.10;;
56503;SDS011;48812;51.606;-0.114;2023-05-07T06:22:12;1.80;;;1.50;;
56503;SDS011;48812;51.606;-0.114;2023-05-07T06:24:44;2.70;;;1.83;;
56503;SDS011;48812;51.606;-0.114;2023-05-07T06:27:18;2.13;;;1.90;;
56503;SDS011;48812;51.606;-0.114;2023-05-07T06:29:50;1.90;;;1.70;;
56503;SDS011;48812;51.606;-0.114;2023-05-07T06:32:24;2.05;;;1.77;;
56503;SDS011;48812;51.606;-0.114;2023-05-07T06:34:59;2.40;;;1.80;;
56503;SDS011;48812;51.606;-0.114;2023-05-07T06:37:31;1.80;;;1.70;;
56503;SDS011;48812;51.606;-0.114;2023-05-07T06:40:08;1.73;;;1.63;;
56503;SDS011;48812;51.606;-0.114;2023-05-07T06:42:43;1.73;;;1.58;;
56503;SDS011;48812;51.606;-0.114;2023-05-07T06:45:48;2.10;;;1.90;;
56503;SDS011;48812;51.606;-0.114;2023-05-07T06:48:21;2.10;;;1.80;;
56503;SDS011;48812;51.606;-0.114;2023-05-07T06:51:03;2.00;;;1.77;;
56503;SDS011;48812;51.606;-0.114;2023-05-07T06:53:37;2.20;;;1.83;;
56503;SDS011;48812;51.606;-0.114;2023-05-07T06:56:10;2.35;;;2.13;;
56503;SDS011;48812;51.606;-0.114;2023-05-07T06:58:43;2.55;;;1.92;;
56503;SDS011;48812;51.606;-0.114;2023-05-07T07:01:16;2.10;;;1.90;;
56503;SDS011;48812;51.606;-0.114;2023-05-07T07:03:49;2.03;;;1.83;;
56503;SDS011;48812;51.606;-0.114;2023-05-07T07:06:26;2.08;;;1.67;;
56503;SDS011;48812;51.606;-0.114;2023-05-07T07:08:59;1.83;;;1.73;;
56503;SDS011;48812;51.606;-0.114;2023-05-07T07:11:33;2.38;;;1.83;;
56503;SDS011;48812;51.606;-0.114;2023-05-07T07:16:44;1.90;;;1.70;;
56503;SDS011;48812;51.606;-0.114;2023-05-07T07:19:20;2.00;;;1.80;;
56503;SDS011;48812;51.606;-0.114;2023-05-07T07:21:55;1.95;;;1.48;;
56503;SDS011;48812;51.606;-0.114;2023-05-07T07:24:27;2.17;;;1.90;;
56503;SDS011;48812;51.606;-0.114;2023-05-07T07:27:04;1.95;;;1.73;;
56503;SDS011;48812;51.606;-0.114;2023-05-07T07:29:38;2.42;;;1.85;;
56503;SDS011;48812;51.606;-0.114;2023-05-07T07:34:45;1.95;;;1.70;;
56503;SDS011;48812;51.606;-0.114;2023-05-07T07:37:17;1.92;;;1.60;;
56503;SDS011;48812;51.606;-0.114;2023-05-07T07:39:50;2.17;;;1.80;;
56503;SDS011;48812;51.606;-0.114;2023-05-07T07:42:23;1.60;;;1.50;;
56503;SDS011;48812;51.606;-0.114;2023-05-07T07:44:56;2.17;;;1.70;;
56503;SDS011;48812;51.606;-0.114;2023-05-07T07:47:31;2.17;;;1.90;;
56503;SDS011;48812;51.606;-0.114;2023-05-07T07:50:04;2.20;;;1.80;;
56503;SDS011;48812;51.606;-0.114;2023-05-07T07:52:37;1.90;;;1.70;;
56503;SDS011;48812;51.606;-0.114;2023-05-07T07:55:11;2.00;;;1.80;;
56503;SDS011;48812;51.606;-0.114;2023-05-07T07:57:45;2.05;;;1.77;;
56503;SDS011;48812;51.606;-0.114;2023-05-07T08:00:17;2.15;;;1.77;;
56503;SDS011;48812;51.606;-0.114;2023-05-07T08:02:54;1.80;;;1.60;;
56503;SDS011;48812;51.606;-0.114;2023-05-07T08:05:32;1.92;;;1.70;;
56503;SDS011;48812;51.606;-0.114;2023-05-07T08:08:04;2.65;;;1.83;;
56503;SDS011;48812;51.606;-0.114;2023-05-07T08:10:39;2.38;;;1.92;;
56503;SDS011;48812;51.606;-0.114;2023-05-07T08:13:20;1.70;;;1.60;;
56503;SDS011;48812;51.606;-0.114;2023-05-07T08:15:52;1.75;;;1.65;;
56503;SDS011;48812;51.606;-0.114;2023-05-07T08:18:25;2.77;;;1.70;;
56503;SDS011;48812;51.606;-0.114;2023-05-07T08:20:58;1.92;;;1.70;;
56503;SDS011;48812;51.606;-0.114;2023-05-07T08:23:31;2.22;;;1.75;;
56503;SDS011;48812;51.606;-0.114;2023-05-07T08:26:04;1.88;;;1.67;;
56503;SDS011;48812;51.606;-0.114;2023-05-07T08:28:37;1.67;;;1.58;;
56503;SDS011;48812;51.606;-0.114;2023-05-07T08:31:09;2.08;;;1.80;;
56503;SDS011;48812;51.606;-0.114;2023-05-07T08:33:44;2.17;;;1.58;;
56503;SDS011;48812;51.606;-0.114;2023-05-07T08:36:17;1.70;;;1.60;;
56503;SDS011;48812;51.606;-0.114;2023-05-07T08:38:51;2.25;;;2.00;;
56503;SDS011;48812;51.606;-0.114;2023-05-07T08:41:27;2.20;;;2.00;;
56503;SDS011;48812;51.606;-0.114;2023-05-07T08:44:00;2.10;;;1.90;;
56503;SDS011;48812;51.606;-0.114;2023-05-07T08:46:35;1.73;;;1.60;;
56503;SDS011;48812;51.606;-0.114;2023-05-07T08:49:08;1.70;;;1.50;;
56503;SDS011;48812;51.606;-0.114;2023-05-07T08:51:41;1.88;;;1.70;;
56503;SDS011;48812;51.606;-0.114;2023-05-07T08:54:17;2.22;;;1.85;;
56503;SDS011;48812;51.606;-0.114;2023-05-07T08:56:52;1.90;;;1.67;;
56503;SDS011;48812;51.606;-0.114;2023-05-07T08:59:25;1.67;;;1.52;;
56503;SDS011;48812;51.606;-0.114;2023-05-07T09:01:57;1.77;;;1.65;;
56503;SDS011;48812;51.606;-0.114;2023-05-07T09:04:31;1.90;;;1.70;;
56503;SDS011;48812;51.606;-0.114;2023-05-07T09:07:06;1.90;;;1.70;;
56503;SDS011;48812;51.606;-0.114;2023-05-07T09:09:44;1.98;;;1.70;;
56503;SDS011;48812;51.606;-0.114;2023-05-07T09:12:18;1.73;;;1.63;;
56503;SDS011;48812;51.606;-0.114;2023-05-07T09:14:52;1.70;;;1.58;;
56503;SDS011;48812;51.606;-0.114;2023-05-07T09:17:25;2.10;;;1.90;;
56503;SDS011;48812;51.606;-0.114;2023-05-07T09:20:04;2.20;;;1.83;;
56503;SDS011;48812;51.606;-0.114;2023-05-07T09:22:41;2.28;;;1.90;;
56503;SDS011;48812;51.606;-0.114;2023-05-07T09:25:18;2.05;;;1.63;;
56503;SDS011;48812;51.606;-0.114;2023-05-07T09:28:02;1.77;;;1.40;;
56503;SDS011;48812;51.606;-0.114;2023-05-07T09:30:35;1.77;;;1.50;;
56503;SDS011;48812;51.606;-0.114;2023-05-07T09:33:11;1.60;;;1.50;;
56503;SDS011;48812;51.606;-0.114;2023-05-07T09:35:51;2.72;;;1.88;;
56503;SDS011;48812;51.606;-0.114;2023-05-07T09:38:25;1.45;;;1.35;;
56503;SDS011;48812;51.606;-0.114;2023-05-07T09:41:06;1.83;;;1.58;;
56503;SDS011;48812;51.606;-0.114;2023-05-07T09:43:47;1.65;;;1.45;;
56503;SDS011;48812;51.606;-0.114;2023-05-07T09:46:29;2.20;;;1.60;;
56503;SDS011;48812;51.606;-0.114;2023-05-07T09:49:07;2.10;;;1.63;;
56503;SDS011;48812;51.606;-0.114;2023-05-07T09:51:51;1.67;;;1.50;;
56503;SDS011;48812;51.606;-0.114;2023-05-07T09:54:27;1.77;;;1.60;;
56503;SDS011;48812;51.606;-0.114;2023-05-07T09:57:05;1.77;;;1.67;;
56503;SDS011;48812;51.606;-0.114;2023-05-07T09:59:39;1.70;;;1.55;;
56503;SDS011;48812;51.606;-0.114;2023-05-07T10:02:18;1.88;;;1.40;;
56503;SDS011;48812;51.606;-0.114;2023-05-07T10:04:57;1.70;;;1.50;;
56503;SDS011;48812;51.606;-0.114;2023-05-07T10:07:35;1.58;;;1.48;;
56503;SDS011;48812;51.606;-0.114;2023-05-07T10:10:12;2.03;;;1.52;;
56503;SDS011;48812;51.606;-0.114;2023-05-07T10:12:48;1.88;;;1.50;;
56503;SDS011;48812;51.606;-0.114;2023-05-07T10:15:31;2.00;;;1.58;;
56503;SDS011;48812;51.606;-0.114;2023-05-07T10:18:07;1.60;;;1.50;;
56503;SDS011;48812;51.606;-0.114;2023-05-07T10:20:42;1.90;;;1.75;;
56503;SDS011;48812;51.606;-0.114;2023-05-07T10:23:19;1.52;;;1.42;;
56503;SDS011;48812;51.606;-0.114;2023-05-07T10:26:01;1.52;;;1.42;;
56503;SDS011;48812;51.606;-0.114;2023-05-07T10:28:38;1.77;;;1.58;;
56503;SDS011;48812;51.606;-0.114;2023-05-07T10:34:21;1.67;;;1.53;;
56503;SDS011;48812;51.606;-0.114;2023-05-07T10:36:57;1.70;;;1.50;;
56503;SDS011;48812;51.606;-0.114;2023-05-07T10:39:32;1.90;;;1.38;;
56503;SDS011;48812;51.606;-0.114;2023-05-07T10:42:11;1.98;;;1.35;;
56503;SDS011;48812;51.606;-0.114;2023-05-07T10:44:50;1.60;;;1.50;;
56503;SDS011;48812;51.606;-0.114;2023-05-07T10:47:28;1.75;;;1.45;;
56503;SDS011;48812;51.606;-0.114;2023-05-07T10:52:40;1.65;;;1.55;;
56503;SDS011;48812;51.606;-0.114;2023-05-07T10:55:20;1.50;;;1.40;;
56503;SDS011;48812;51.606;-0.114;2023-05-07T10:58:27;1.38;;;1.27;;
56503;SDS011;48812;51.606;-0.114;2023-05-07T11:08:04;1.67;;;1.42;;
56503;SDS011;48812;51.606;-0.114;2023-05-07T11:13:43;1.75;;;1.58;;
56503;SDS011;48812;51.606;-0.114;2023-05-07T11:16:36;1.70;;;1.60;;
56503;SDS011;48812;51.606;-0.114;2023-05-07T11:22:47;2.13;;;1.77;;
56503;SDS011;48812;51.606;-0.114;2023-05-07T11:25:42;3.10;;;2.10;;
56503;SDS011;48812;51.606;-0.114;2023-05-07T11:28:21;2.20;;;2.00;;
56503;SDS011;48812;51.606;-0.114;2023-05-07T11:31:05;2.40;;;2.13;;
56503;SDS011;48812;51.606;-0.114;2023-05-07T11:33:40;3.10;;;2.38;;
56503;SDS011;48812;51.606;-0.114;2023-05-07T11:36:18;3.28;;;2.10;;
56503;SDS011;48812;51.606;-0.114;2023-05-07T11:38:55;2.42;;;2.03;;
56503;SDS011;48812;51.606;-0.114;2023-05-07T11:41:35;2.38;;;1.90;;
56503;SDS011;48812;51.606;-0.114;2023-05-07T11:44:14;2.70;;;2.10;;
56503;SDS011;48812;51.606;-0.114;2023-05-07T11:46:47;2.20;;;2.00;;
56503;SDS011;48812;51.606;-0.114;2023-05-07T11:49:20;2.83;;;2.20;;
56503;SDS011;48812;51.606;-0.114;2023-05-07T11:51:57;2.13;;;1.92;;
56503;SDS011;48812;51.606;-0.114;2023-05-07T11:54:35;2.00;;;1.80;;
56503;SDS011;48812;51.606;-0.114;2023-05-07T11:57:14;2.28;;;1.88;;
56503;SDS011;48812;51.606;-0.114;2023-05-07T11:59:47;2.60;;;2.08;;
56503;SDS011;48812;51.606;-0.114;2023-05-07T12:02:20;2.15;;;1.80;;
56503;SDS011;48812;51.606;-0.114;2023-05-07T12:04:52;2.00;;;1.77;;
56503;SDS011;48812;51.606;-0.114;2023-05-07T12:07:25;2.00;;;1.80;;
56503;SDS011;48812;51.606;-0.114;2023-05-07T12:09:57;2.03;;;1.67;;
56503;SDS011;48812;51.606;-0.114;2023-05-07T12:12:30;2.08;;;1.60;;
56503;SDS011;48812;51.606;-0.114;2023-05-07T12:15:03;2.03;;;1.83;;
56503;SDS011;48812;51.606;-0.114;2023-05-07T12:17:35;1.80;;;1.63;;
56503;SDS011;48812;51.606;-0.114;2023-05-07T12:20:08;1.70;;;1.50;;
56503;SDS011;48812;51.606;-0.114;2023-05-07T12:22:42;1.85;;;1.55;;
56503;SDS011;48812;51.606;-0.114;2023-05-07T12:25:18;2.53;;;1.90;;
56503;SDS011;48812;51.606;-0.114;2023-05-07T12:27:52;2.42;;;1.60;;
56503;SDS011;48812;51.606;-0.114;2023-05-07T12:30:25;1.90;;;1.60;;
56503;SDS011;48812;51.606;-0.114;2023-05-07T12:32:58;1.88;;;1.70;;
56503;SDS011;48812;51.606;-0.114;2023-05-07T12:35:31;1.75;;;1.58;;
56503;SDS011;48812;51.606;-0.114;2023-05-07T12:38:09;2.05;;;1.85;;
56503;SDS011;48812;51.606;-0.114;2023-05-07T12:40:46;1.70;;;1.50;;
56503;SDS011;48812;51.606;-0.114;2023-05-07T12:43:27;1.70;;;1.48;;
56503;SDS011;48812;51.606;-0.114;2023-05-07T12:46:01;1.70;;;1.50;;
56503;SDS011;48812;51.606;-0.114;2023-05-07T12:48:37;1.58;;;1.45;;
56503;SDS011;48812;51.606;-0.114;2023-05-07T12:51:10;1.73;;;1.63;;
56503;SDS011;48812;51.606;-0.114;2023-05-07T12:53:45;1.95;;;1.73;;
56503;SDS011;48812;51.606;-0.114;2023-05-07T12:56:17;1.80;;;1.40;;
56503;SDS011;48812;51.606;-0.114;2023-05-07T12:58:50;1.63;;;1.30;;
56503;SDS011;48812;51.606;-0.114;2023-05-07T13:01:22;1.73;;;1.40;;
56503;SDS011;48812;51.606;-0.114;2023-05-07T13:04:05;1.85;;;1.50;;
56503;SDS011;48812;51.606;-0.114;2023-05-07T13:06:40;1.60;;;1.50;;
56503;SDS011;48812;51.606;-0.114;2023-05-07T13:09:12;1.67;;;1.53;;
56503;SDS011;48812;51.606;-0.114;2023-05-07T13:14:18;1.98;;;1.42;;
56503;SDS011;48812;51.606;-0.114;2023-05-07T13:16:52;2.13;;;1.38;;
56503;SDS011;48812;51.606;-0.114;2023-05-07T13:19:25;1.95;;;1.50;;
56503;SDS011;48812;51.606;-0.114;2023-05-07T13:22:00;1.98;;;1.50;;
56503;SDS011;48812;51.606;-0.114;2023-05-07T13:24:32;1.55;;;1.45;;
56503;SDS011;48812;51.606;-0.114;2023-05-07T13:27:05;1.60;;;1.48;;
56503;SDS011;48812;51.606;-0.114;2023-05-07T13:29:37;1.67;;;1.40;;
56503;SDS011;48812;51.606;-0.114;2023-05-07T13:32:10;2.15;;;1.70;;
56503;SDS011;48812;51.606;-0.114;2023-05-07T13:34:42;2.28;;;1.90;;
56503;SDS011;48812;51.606;-0.114;2023-05-07T13:37:15;2.23;;;1.70;;
56503;SDS011;48812;51.606;-0.114;2023-05-07T13:39:47;1.90;;;1.50;;
56503;SDS011;48812;51.606;-0.114;2023-05-07T13:42:20;2.08;;;1.60;;
56503;SDS011;48812;51.606;-0.114;2023-05-07T13:44:52;1.70;;;1.60;;
56503;SDS011;48812;51.606;-0.114;2023-05-07T13:47:24;2.17;;;1.40;;
56503;SDS011;48812;51.606;-0.114;2023-05-07T13:49:57;1.52;;;1.40;;
56503;SDS011;48812;51.606;-0.114;2023-05-07T13:52:29;2.27;;;1.60;;
56503;SDS011;48812;51.606;-0.114;2023-05-07T13:55:02;1.73;;;1.60;;
56503;SDS011;48812;51.606;-0.114;2023-05-07T14:00:08;1.90;;;1.45;;
56503;SDS011;48812;51.606;-0.114;2023-05-07T14:02:47;2.10;;;1.63;;
56503;SDS011;48812;51.606;-0.114;2023-05-07T14:05:19;2.03;;;1.50;;
56503;SDS011;48812;51.606;-0.114;2023-05-07T14:07:51;1.40;;;1.30;;
56503;SDS011;48812;51.606;-0.114;2023-05-07T14:10:24;1.45;;;1.35;;
56503;SDS011;48812;51.606;-0.114;2023-05-07T14:12:57;1.52;;;1.40;;
56503;SDS011;48812;51.606;-0.114;2023-05-07T14:15:29;1.92;;;1.40;;
56503;SDS011;48812;51.606;-0.114;2023-05-07T14:18:02;2.08;;;1.50;;
56503;SDS011;48812;51.606;-0.114;2023-05-07T14:20:34;1.77;;;1.45;;
56503;SDS011;48812;51.606;-0.114;2023-05-07T14:23:09;1.55;;;1.30;;
56503;SDS011;48812;51.606;-0.114;2023-05-07T14:25:42;1.30;;;1.20;;
56503;SDS011;48812;51.606;-0.114;2023-05-07T14:28:15;2.67;;;1.20;;
56503;SDS011;48812;51.606;-0.114;2023-05-07T14:30:47;1.42;;;1.33;;
56503;SDS011;48812;51.606;-0.114;2023-05-07T14:33:21;1.60;;;1.40;;
56503;SDS011;48812;51.606;-0.114;2023-05-07T14:35:54;1.50;;;1.40;;
56503;SDS011;48812;51.606;-0.114;2023-05-07T14:38:26;1.60;;;1.20;;
56503;SDS011;48812;51.606;-0.114;2023-05-07T14:41:00;2.00;;;1.52;;
56503;SDS011;48812;51.606;-0.114;2023-05-07T14:43:32;1.67;;;1.50;;
56503;SDS011;48812;51.606;-0.114;2023-05-07T14:46:06;1.50;;;1.30;;
56503;SDS011;48812;51.606;-0.114;2023-05-07T14:48:39;1.50;;;1.40;;
56503;SDS011;48812;51.606;-0.114;2023-05-07T14:51:11;1.52;;;1.42;;
56503;SDS011;48812;51.606;-0.114;2023-05-07T14:53:45;1.50;;;1.40;;
56503;SDS011;48812;51.606;-0.114;2023-05-07T14:56:17;1.33;;;1.20;;
56503;SDS011;48812;51.606;-0.114;2023-05-07T14:58:50;1.63;;;1.38;;
56503;SDS011;48812;51.606;-0.114;2023-05-07T15:01:24;1.40;;;1.30;;
56503;SDS011;48812;51.606;-0.114;2023-05-07T15:03:57;1.52;;;1.30;;
56503;SDS011;48812;51.606;-0.114;2023-05-07T15:06:30;1.67;;;1.30;;
56503;SDS011;48812;51.606;-0.114;2023-05-07T15:11:35;1.80;;;1.30;;
56503;SDS011;48812;51.606;-0.114;2023-05-07T16:43:32;1.30;;;0.40;;
56503;SDS011;48812;51.606;-0.114;2023-05-07T16:46:05;1.27;;;1.10;;
56503;SDS011;48812;51.606;-0.114;2023-05-07T16:48:37;1.13;;;1.02;;
56503;SDS011;48812;51.606;-0.114;2023-05-07T16:51:10;1.27;;;1.17;;
56503;SDS011;48812;51.606;-0.114;2023-05-07T16:53:42;1.20;;;1.10;;
56503;SDS011;48812;51.606;-0.114;2023-05-07T16:56:14;1.13;;;1.00;;
56503;SDS011;48812;51.606;-0.114;2023-05-07T16:58:47;1.30;;;1.17;;
56503;SDS011;48812;51.606;-0.114;2023-05-07T17:01:20;1.20;;;1.10;;
56503;SDS011;48812;51.606;-0.114;2023-05-07T17:03:52;1.55;;;1.40;;
56503;SDS011;48812;51.606;-0.114;2023-05-07T17:06:25;1.50;;;1.40;;
56503;SDS011;48812;51.606;-0.114;2023-05-07T17:09:00;1.63;;;1.30;;
56503;SDS011;48812;51.606;-0.114;2023-05-07T17:11:33;1.45;;;1.30;;
56503;SDS011;48812;51.606;-0.114;2023-05-07T17:14:06;1.92;;;1.30;;
56503;SDS011;48812;51.606;-0.114;2023-05-07T17:16:39;1.33;;;1.23;;
56503;SDS011;48812;51.606;-0.114;2023-05-07T17:19:12;1.45;;;1.30;;
56503;SDS011;48812;51.606;-0.114;2023-05-07T17:21:44;1.67;;;1.30;;
56503;SDS011;48812;51.606;-0.114;2023-05-07T17:24:17;1.27;;;1.17;;